sensor_id;sensor_type;location;lat;lon;timestamp;temperature;humidity
18577;DHT22;9418;52.694;13.294;2022-10-15T00:00:16;13.00;99.90
18577;DHT22;9418;52.694;13.294;2022-10-15T00:02:42;13.00;99.90
18577;DHT22;9418;52.694;13.294;2022-10-15T00:05:09;13.00;99.90
18577;DHT22;9418;52.694;13.294;2022-10-15T00:07:35;13.00;99.90
18577;DHT22;9418;52.694;13.294;2022-10-15T00:10:04;13.10;99.90
18577;DHT22;9418;52.694;13.294;2022-10-15T00:12:31;13.00;99.90
18577;DHT22;9418;52.694;13.294;2022-10-15T00:14:57;13.10;99.90
18577;DHT22;9418;52.694;13.294;2022-10-15T00:17:24;13.10;99.90
18577;DHT22;9418;52.694;13.294;2022-10-15T00:19:50;13.10;99.90
18577;DHT22;9418;52.694;13.294;2022-10-15T00:22:17;13.00;99.90
18577;DHT22;9418;52.694;13.294;2022-10-15T00:24:43;13.10;99.90
18577;DHT22;9418;52.694;13.294;2022-10-15T00:27:11;13.10;99.90
18577;DHT22;9418;52.694;13.294;2022-10-15T00:29:38;13.10;99.90
18577;DHT22;9418;52.694;13.294;2022-10-15T00:32:05;13.10;99.90
18577;DHT22;9418;52.694;13.294;2022-10-15T00:34:31;13.10;99.90
18577;DHT22;9418;52.694;13.294;2022-10-15T00:36:58;13.10;99.90
18577;DHT22;9418;52.694;13.294;2022-10-15T00:39:25;13.10;99.90
18577;DHT22;9418;52.694;13.294;2022-10-15T00:41:51;13.10;99.90
18577;DHT22;9418;52.694;13.294;2022-10-15T00:44:52;13.00;99.90
18577;DHT22;9418;52.694;13.294;2022-10-15T00:47:24;13.10;99.90
18577;DHT22;9418;52.694;13.294;2022-10-15T00:49:58;13.10;99.90
18577;DHT22;9418;52.694;13.294;2022-10-15T00:52:28;13.10;99.90
18577;DHT22;9418;52.694;13.294;2022-10-15T00:55:00;13.10;99.90
18577;DHT22;9418;52.694;13.294;2022-10-15T00:57:30;13.00;99.90
18577;DHT22;9418;52.694;13.294;2022-10-15T01:00:02;13.10;99.90
18577;DHT22;9418;52.694;13.294;2022-10-15T01:02:29;13.00;99.90
18577;DHT22;9418;52.694;13.294;2022-10-15T01:04:56;13.10;99.90
18577;DHT22;9418;52.694;13.294;2022-10-15T01:07:22;13.10;99.90
18577;DHT22;9418;52.694;13.294;2022-10-15T01:09:49;13.10;99.90
18577;DHT22;9418;52.694;13.294;2022-10-15T01:12:21;13.10;99.90
18577;DHT22;9418;52.694;13.294;2022-10-15T01:15:00;13.00;99.90
18577;DHT22;9418;52.694;13.294;2022-10-15T01:17:35;13.10;99.90
18577;DHT22;9418;52.694;13.294;2022-10-15T01:23:18;13.00;99.90
18577;DHT22;9418;52.694;13.294;2022-10-15T01:26:02;13.10;99.90
18577;DHT22;9418;52.694;13.294;2022-10-15T01:28:39;13.10;99.90
18577;DHT22;9418;52.694;13.294;2022-10-15T01:31:17;13.10;99.90
18577;DHT22;9418;52.694;13.294;2022-10-15T01:33:53;13.10;99.90
18577;DHT22;9418;52.694;13.294;2022-10-15T01:36:29;13.10;99.90
18577;DHT22;9418;52.694;13.294;2022-10-15T01:38:59;13.10;99.90
18577;DHT22;9418;52.694;13.294;2022-10-15T01:41:31;13.10;99.90
18577;DHT22;9418;52.694;13.294;2022-10-15T01:44:01;13.10;99.90
18577;DHT22;9418;52.694;13.294;2022-10-15T01:46:34;13.10;99.90
18577;DHT22;9418;52.694;13.294;2022-10-15T01:49:04;13.10;99.90
18577;DHT22;9418;52.694;13.294;2022-10-15T01:51:34;13.10;99.90
18577;DHT22;9418;52.694;13.294;2022-10-15T01:54:03;13.10;99.90
18577;DHT22;9418;52.694;13.294;2022-10-15T01:56:31;13.10;99.90
18577;DHT22;9418;52.694;13.294;2022-10-15T01:59:00;13.10;99.90
18577;DHT22;9418;52.694;13.294;2022-10-15T02:01:27;13.10;99.90
18577;DHT22;9418;52.694;13.294;2022-10-15T02:03:55;13.10;99.90
18577;DHT22;9418;52.694;13.294;2022-10-15T02:06:24;13.10;99.90
18577;DHT22;9418;52.694;13.294;2022-10-15T02:09:03;13.10;99.90
18577;DHT22;9418;52.694;13.294;2022-10-15T02:11:40;13.10;99.90
18577;DHT22;9418;52.694;13.294;2022-10-15T02:14:09;13.10;99.90
18577;DHT22;9418;52.694;13.294;2022-10-15T02:16:39;13.10;98.90
18577;DHT22;9418;52.694;13.294;2022-10-15T02:19:13;13.10;96.90
18577;DHT22;9418;52.694;13.294;2022-10-15T02:21:44;13.10;94.40
18577;DHT22;9418;52.694;13.294;2022-10-15T02:24:14;13.10;93.80
18577;DHT22;9418;52.694;13.294;2022-10-15T02:26:43;13.10;94.00
18577;DHT22;9418;52.694;13.294;2022-10-15T02:29:13;13.10;92.20
18577;DHT22;9418;52.694;13.294;2022-10-15T02:31:44;13.10;92.50
18577;DHT22;9418;52.694;13.294;2022-10-15T02:34:17;13.00;91.20
18577;DHT22;9418;52.694;13.294;2022-10-15T02:36:46;13.10;89.10
18577;DHT22;9418;52.694;13.294;2022-10-15T02:39:16;13.00;87.50
18577;DHT22;9418;52.694;13.294;2022-10-15T02:41:45;13.00;87.50
18577;DHT22;9418;52.694;13.294;2022-10-15T02:44:12;13.00;86.70
18577;DHT22;9418;52.694;13.294;2022-10-15T02:46:39;13.00;83.60
18577;DHT22;9418;52.694;13.294;2022-10-15T02:49:06;13.00;82.90
18577;DHT22;9418;52.694;13.294;2022-10-15T02:51:35;13.00;81.50
18577;DHT22;9418;52.694;13.294;2022-10-15T02:54:03;13.00;80.20
18577;DHT22;9418;52.694;13.294;2022-10-15T02:56:30;13.00;79.10
18577;DHT22;9418;52.694;13.294;2022-10-15T02:58:57;13.00;76.70
18577;DHT22;9418;52.694;13.294;2022-10-15T03:01:23;13.00;75.70
18577;DHT22;9418;52.694;13.294;2022-10-15T03:03:50;13.00;74.30
18577;DHT22;9418;52.694;13.294;2022-10-15T03:06:17;12.90;73.50
18577;DHT22;9418;52.694;13.294;2022-10-15T03:08:44;12.90;73.90
18577;DHT22;9418;52.694;13.294;2022-10-15T03:11:11;12.90;73.10
18577;DHT22;9418;52.694;13.294;2022-10-15T03:13:39;12.90;73.10
18577;DHT22;9418;52.694;13.294;2022-10-15T03:16:07;12.90;70.60
18577;DHT22;9418;52.694;13.294;2022-10-15T03:18:34;12.90;70.00
18577;DHT22;9418;52.694;13.294;2022-10-15T03:21:01;12.90;68.20
18577;DHT22;9418;52.694;13.294;2022-10-15T03:23:28;12.90;67.00
18577;DHT22;9418;52.694;13.294;2022-10-15T03:25:56;12.90;64.80
18577;DHT22;9418;52.694;13.294;2022-10-15T03:28:23;12.90;64.60
18577;DHT22;9418;52.694;13.294;2022-10-15T03:30:49;12.80;61.90
18577;DHT22;9418;52.694;13.294;2022-10-15T03:33:16;12.80;61.80
18577;DHT22;9418;52.694;13.294;2022-10-15T03:35:43;12.80;59.80
18577;DHT22;9418;52.694;13.294;2022-10-15T03:38:09;12.80;58.80
18577;DHT22;9418;52.694;13.294;2022-10-15T03:40:36;12.80;57.00
18577;DHT22;9418;52.694;13.294;2022-10-15T03:43:04;12.80;57.00
18577;DHT22;9418;52.694;13.294;2022-10-15T03:45:31;12.80;55.80
18577;DHT22;9418;52.694;13.294;2022-10-15T03:47:57;12.80;54.40
18577;DHT22;9418;52.694;13.294;2022-10-15T03:50:24;12.80;53.50
18577;DHT22;9418;52.694;13.294;2022-10-15T03:52:51;12.80;52.00
18577;DHT22;9418;52.694;13.294;2022-10-15T03:55:17;12.90;50.30
18577;DHT22;9418;52.694;13.294;2022-10-15T03:57:44;12.90;49.30
18577;DHT22;9418;52.694;13.294;2022-10-15T04:00:13;12.90;48.00
18577;DHT22;9418;52.694;13.294;2022-10-15T04:02:40;12.90;47.10
18577;DHT22;9418;52.694;13.294;2022-10-15T04:05:07;12.90;46.30
18577;DHT22;9418;52.694;13.294;2022-10-15T04:07:33;12.90;45.20
18577;DHT22;9418;52.694;13.294;2022-10-15T04:10:01;12.90;43.90
18577;DHT22;9418;52.694;13.294;2022-10-15T04:12:27;13.00;42.90
18577;DHT22;9418;52.694;13.294;2022-10-15T04:14:54;13.00;42.40
18577;DHT22;9418;52.694;13.294;2022-10-15T04:17:22;12.90;41.60
18577;DHT22;9418;52.694;13.294;2022-10-15T04:19:49;13.00;41.40
18577;DHT22;9418;52.694;13.294;2022-10-15T04:22:15;13.00;40.40
18577;DHT22;9418;52.694;13.294;2022-10-15T04:24:42;13.00;39.60
18577;DHT22;9418;52.694;13.294;2022-10-15T04:27:09;13.00;38.90
18577;DHT22;9418;52.694;13.294;2022-10-15T04:29:36;13.00;38.10
18577;DHT22;9418;52.694;13.294;2022-10-15T04:32:03;13.00;37.00
18577;DHT22;9418;52.694;13.294;2022-10-15T04:34:31;13.00;36.90
18577;DHT22;9418;52.694;13.294;2022-10-15T04:36:57;13.00;36.30
18577;DHT22;9418;52.694;13.294;2022-10-15T04:39:24;13.10;35.00
18577;DHT22;9418;52.694;13.294;2022-10-15T04:41:50;13.10;35.00
18577;DHT22;9418;52.694;13.294;2022-10-15T04:44:17;13.10;34.70
18577;DHT22;9418;52.694;13.294;2022-10-15T04:46:44;13.00;34.80
18577;DHT22;9418;52.694;13.294;2022-10-15T04:49:11;13.10;34.00
18577;DHT22;9418;52.694;13.294;2022-10-15T04:51:38;13.10;33.50
18577;DHT22;9418;52.694;13.294;2022-10-15T04:54:05;13.10;33.50
18577;DHT22;9418;52.694;13.294;2022-10-15T04:56:32;13.10;33.50
18577;DHT22;9418;52.694;13.294;2022-10-15T04:58:58;13.10;33.80
18577;DHT22;9418;52.694;13.294;2022-10-15T05:01:25;13.10;33.10
18577;DHT22;9418;52.694;13.294;2022-10-15T05:03:51;13.10;33.70
18577;DHT22;9418;52.694;13.294;2022-10-15T05:06:20;13.10;33.80
18577;DHT22;9418;52.694;13.294;2022-10-15T05:08:48;13.10;33.40
18577;DHT22;9418;52.694;13.294;2022-10-15T05:11:17;13.10;33.90
18577;DHT22;9418;52.694;13.294;2022-10-15T05:13:44;13.10;33.50
18577;DHT22;9418;52.694;13.294;2022-10-15T05:16:12;13.10;33.80
18577;DHT22;9418;52.694;13.294;2022-10-15T05:18:40;13.00;34.20
18577;DHT22;9418;52.694;13.294;2022-10-15T05:21:08;13.00;34.70
18577;DHT22;9418;52.694;13.294;2022-10-15T05:23:34;13.00;35.20
18577;DHT22;9418;52.694;13.294;2022-10-15T05:26:05;13.00;35.50
18577;DHT22;9418;52.694;13.294;2022-10-15T05:28:32;13.00;35.90
18577;DHT22;9418;52.694;13.294;2022-10-15T05:31:03;13.00;35.70
18577;DHT22;9418;52.694;13.294;2022-10-15T05:33:30;12.90;35.80
18577;DHT22;9418;52.694;13.294;2022-10-15T05:36:06;12.90;36.80
18577;DHT22;9418;52.694;13.294;2022-10-15T05:38:32;12.80;37.10
18577;DHT22;9418;52.694;13.294;2022-10-15T05:40:59;12.80;39.40
18577;DHT22;9418;52.694;13.294;2022-10-15T05:43:27;12.80;37.90
18577;DHT22;9418;52.694;13.294;2022-10-15T05:45:53;12.70;36.90
18577;DHT22;9418;52.694;13.294;2022-10-15T05:48:20;12.70;36.80
18577;DHT22;9418;52.694;13.294;2022-10-15T05:50:47;12.70;36.60
18577;DHT22;9418;52.694;13.294;2022-10-15T05:53:13;12.70;35.00
18577;DHT22;9418;52.694;13.294;2022-10-15T05:55:40;12.70;35.10
18577;DHT22;9418;52.694;13.294;2022-10-15T05:58:07;12.70;34.50
18577;DHT22;9418;52.694;13.294;2022-10-15T06:00:35;12.70;34.60
18577;DHT22;9418;52.694;13.294;2022-10-15T06:03:03;12.70;34.60
18577;DHT22;9418;52.694;13.294;2022-10-15T06:05:30;12.70;34.10
18577;DHT22;9418;52.694;13.294;2022-10-15T06:07:57;12.60;34.90
18577;DHT22;9418;52.694;13.294;2022-10-15T06:10:24;12.60;34.40
18577;DHT22;9418;52.694;13.294;2022-10-15T06:12:52;12.60;35.40
18577;DHT22;9418;52.694;13.294;2022-10-15T06:15:19;12.60;35.70
18577;DHT22;9418;52.694;13.294;2022-10-15T06:17:47;12.50;37.20
18577;DHT22;9418;52.694;13.294;2022-10-15T06:20:13;12.50;37.40
18577;DHT22;9418;52.694;13.294;2022-10-15T06:22:40;12.60;36.10
18577;DHT22;9418;52.694;13.294;2022-10-15T06:25:07;12.60;33.30
18577;DHT22;9418;52.694;13.294;2022-10-15T06:27:34;12.60;32.30
18577;DHT22;9418;52.694;13.294;2022-10-15T06:30:01;12.70;30.40
18577;DHT22;9418;52.694;13.294;2022-10-15T06:32:27;12.80;29.10
18577;DHT22;9418;52.694;13.294;2022-10-15T06:34:55;12.80;26.40
18577;DHT22;9418;52.694;13.294;2022-10-15T06:37:22;12.90;24.70
18577;DHT22;9418;52.694;13.294;2022-10-15T06:39:48;13.00;23.90
18577;DHT22;9418;52.694;13.294;2022-10-15T06:42:15;13.00;23.00
18577;DHT22;9418;52.694;13.294;2022-10-15T06:44:42;13.00;23.30
18577;DHT22;9418;52.694;13.294;2022-10-15T06:47:08;13.00;22.60
18577;DHT22;9418;52.694;13.294;2022-10-15T06:49:35;13.10;22.20
18577;DHT22;9418;52.694;13.294;2022-10-15T06:52:03;13.10;22.00
18577;DHT22;9418;52.694;13.294;2022-10-15T06:54:30;13.10;21.70
18577;DHT22;9418;52.694;13.294;2022-10-15T06:56:56;13.10;21.90
18577;DHT22;9418;52.694;13.294;2022-10-15T06:59:23;13.10;22.00
18577;DHT22;9418;52.694;13.294;2022-10-15T07:01:49;13.10;22.00
18577;DHT22;9418;52.694;13.294;2022-10-15T07:04:16;13.10;22.00
18577;DHT22;9418;52.694;13.294;2022-10-15T07:06:43;13.20;21.90
18577;DHT22;9418;52.694;13.294;2022-10-15T07:09:10;13.20;22.40
18577;DHT22;9418;52.694;13.294;2022-10-15T07:11:37;13.20;22.00
18577;DHT22;9418;52.694;13.294;2022-10-15T07:14:04;13.20;21.50
18577;DHT22;9418;52.694;13.294;2022-10-15T07:16:31;13.30;21.40
18577;DHT22;9418;52.694;13.294;2022-10-15T07:18:57;13.30;21.30
18577;DHT22;9418;52.694;13.294;2022-10-15T07:21:24;13.40;20.80
18577;DHT22;9418;52.694;13.294;2022-10-15T07:23:50;13.40;21.30
18577;DHT22;9418;52.694;13.294;2022-10-15T07:26:18;13.50;21.90
18577;DHT22;9418;52.694;13.294;2022-10-15T07:28:45;13.50;21.60
18577;DHT22;9418;52.694;13.294;2022-10-15T07:31:12;13.60;20.90
18577;DHT22;9418;52.694;13.294;2022-10-15T07:33:41;13.70;23.10
18577;DHT22;9418;52.694;13.294;2022-10-15T07:36:09;13.70;24.40
18577;DHT22;9418;52.694;13.294;2022-10-15T07:38:37;13.80;26.20
18577;DHT22;9418;52.694;13.294;2022-10-15T07:41:05;13.80;27.40
18577;DHT22;9418;52.694;13.294;2022-10-15T07:43:34;13.80;36.70
18577;DHT22;9418;52.694;13.294;2022-10-15T07:46:01;13.80;36.00
18577;DHT22;9418;52.694;13.294;2022-10-15T07:48:28;13.90;37.10
18577;DHT22;9418;52.694;13.294;2022-10-15T07:50:54;14.00;39.50
18577;DHT22;9418;52.694;13.294;2022-10-15T07:53:21;14.00;45.40
18577;DHT22;9418;52.694;13.294;2022-10-15T07:55:48;14.10;49.60
18577;DHT22;9418;52.694;13.294;2022-10-15T07:58:15;14.30;57.20
18577;DHT22;9418;52.694;13.294;2022-10-15T08:00:43;14.50;61.40
18577;DHT22;9418;52.694;13.294;2022-10-15T08:03:09;14.70;69.30
18577;DHT22;9418;52.694;13.294;2022-10-15T08:05:36;14.80;79.30
18577;DHT22;9418;52.694;13.294;2022-10-15T08:08:03;14.80;91.00
18577;DHT22;9418;52.694;13.294;2022-10-15T08:10:29;14.80;99.90
18577;DHT22;9418;52.694;13.294;2022-10-15T08:12:56;14.80;99.90
18577;DHT22;9418;52.694;13.294;2022-10-15T08:15:23;14.80;99.90
18577;DHT22;9418;52.694;13.294;2022-10-15T08:17:51;14.80;99.90
18577;DHT22;9418;52.694;13.294;2022-10-15T08:20:17;14.80;99.90
18577;DHT22;9418;52.694;13.294;2022-10-15T08:22:44;14.90;99.90
18577;DHT22;9418;52.694;13.294;2022-10-15T08:25:11;14.90;99.90
18577;DHT22;9418;52.694;13.294;2022-10-15T08:27:37;14.90;99.90
18577;DHT22;9418;52.694;13.294;2022-10-15T08:30:05;15.00;99.90
18577;DHT22;9418;52.694;13.294;2022-10-15T08:32:32;15.10;99.90
18577;DHT22;9418;52.694;13.294;2022-10-15T08:34:59;15.20;99.90
18577;DHT22;9418;52.694;13.294;2022-10-15T08:37:26;15.30;99.90
18577;DHT22;9418;52.694;13.294;2022-10-15T08:39:53;15.40;99.90
18577;DHT22;9418;52.694;13.294;2022-10-15T08:42:24;15.50;99.90
18577;DHT22;9418;52.694;13.294;2022-10-15T08:44:55;15.50;99.90
18577;DHT22;9418;52.694;13.294;2022-10-15T08:47:29;15.60;99.90
18577;DHT22;9418;52.694;13.294;2022-10-15T08:49:57;15.70;99.90
18577;DHT22;9418;52.694;13.294;2022-10-15T08:52:39;15.70;25.10
18577;DHT22;9418;52.694;13.294;2022-10-15T08:55:09;15.70;28.70
18577;DHT22;9418;52.694;13.294;2022-10-15T08:57:40;15.90;28.00
18577;DHT22;9418;52.694;13.294;2022-10-15T09:00:13;16.20;32.20
18577;DHT22;9418;52.694;13.294;2022-10-15T09:02:49;16.40;49.70
18577;DHT22;9418;52.694;13.294;2022-10-15T09:05:37;16.80;85.60
18577;DHT22;9418;52.694;13.294;2022-10-15T09:08:18;16.80;99.90
18577;DHT22;9418;52.694;13.294;2022-10-15T09:10:48;16.60;99.90
18577;DHT22;9418;52.694;13.294;2022-10-15T09:13:22;16.60;97.70
18577;DHT22;9418;52.694;13.294;2022-10-15T09:15:53;16.50;92.50
18577;DHT22;9418;52.694;13.294;2022-10-15T09:18:23;16.40;97.00
18577;DHT22;9418;52.694;13.294;2022-10-15T09:20:50;16.30;90.80
18577;DHT22;9418;52.694;13.294;2022-10-15T09:23:22;16.20;86.00
18577;DHT22;9418;52.694;13.294;2022-10-15T09:25:54;16.20;82.90
18577;DHT22;9418;52.694;13.294;2022-10-15T09:28:24;16.30;89.90
18577;DHT22;9418;52.694;13.294;2022-10-15T09:30:54;16.30;87.90
18577;DHT22;9418;52.694;13.294;2022-10-15T09:33:31;16.30;91.30
18577;DHT22;9418;52.694;13.294;2022-10-15T09:36:14;16.30;97.00
18577;DHT22;9418;52.694;13.294;2022-10-15T09:38:50;16.30;99.60
18577;DHT22;9418;52.694;13.294;2022-10-15T09:41:24;16.30;93.70
18577;DHT22;9418;52.694;13.294;2022-10-15T09:43:55;16.40;84.60
18577;DHT22;9418;52.694;13.294;2022-10-15T09:46:23;16.40;86.40
18577;DHT22;9418;52.694;13.294;2022-10-15T09:48:52;16.50;97.40
18577;DHT22;9418;52.694;13.294;2022-10-15T09:51:25;16.50;99.90
18577;DHT22;9418;52.694;13.294;2022-10-15T09:53:59;16.50;99.90
18577;DHT22;9418;52.694;13.294;2022-10-15T09:56:32;16.50;99.90
18577;DHT22;9418;52.694;13.294;2022-10-15T09:58:59;16.40;99.90
18577;DHT22;9418;52.694;13.294;2022-10-15T10:01:29;16.50;99.90
18577;DHT22;9418;52.694;13.294;2022-10-15T10:04:10;16.50;99.90
18577;DHT22;9418;52.694;13.294;2022-10-15T10:06:43;16.50;99.90
18577;DHT22;9418;52.694;13.294;2022-10-15T10:09:15;16.50;99.90
18577;DHT22;9418;52.694;13.294;2022-10-15T10:11:47;16.50;99.90
18577;DHT22;9418;52.694;13.294;2022-10-15T10:14:24;16.60;99.90
18577;DHT22;9418;52.694;13.294;2022-10-15T10:17:06;16.60;99.90
18577;DHT22;9418;52.694;13.294;2022-10-15T10:19:35;16.60;99.90
18577;DHT22;9418;52.694;13.294;2022-10-15T10:22:12;16.60;99.90
18577;DHT22;9418;52.694;13.294;2022-10-15T10:24:40;16.60;99.90
18577;DHT22;9418;52.694;13.294;2022-10-15T10:27:17;16.70;99.90
18577;DHT22;9418;52.694;13.294;2022-10-15T10:29:48;16.70;99.90
18577;DHT22;9418;52.694;13.294;2022-10-15T10:32:18;16.80;99.90
18577;DHT22;9418;52.694;13.294;2022-10-15T10:34:46;16.80;99.90
18577;DHT22;9418;52.694;13.294;2022-10-15T10:37:13;16.80;99.90
18577;DHT22;9418;52.694;13.294;2022-10-15T10:39:41;16.90;99.90
18577;DHT22;9418;52.694;13.294;2022-10-15T10:42:24;16.90;99.90
18577;DHT22;9418;52.694;13.294;2022-10-15T10:44:52;16.90;99.90
18577;DHT22;9418;52.694;13.294;2022-10-15T10:47:20;17.00;99.90
18577;DHT22;9418;52.694;13.294;2022-10-15T10:49:48;16.90;99.90
18577;DHT22;9418;52.694;13.294;2022-10-15T10:52:20;16.90;99.90
18577;DHT22;9418;52.694;13.294;2022-10-15T10:54:53;16.90;99.90
18577;DHT22;9418;52.694;13.294;2022-10-15T10:57:29;16.80;99.90
18577;DHT22;9418;52.694;13.294;2022-10-15T10:59:58;16.80;99.90
18577;DHT22;9418;52.694;13.294;2022-10-15T11:02:26;16.80;99.90
18577;DHT22;9418;52.694;13.294;2022-10-15T11:04:53;16.70;99.90
18577;DHT22;9418;52.694;13.294;2022-10-15T11:07:23;16.70;99.90
18577;DHT22;9418;52.694;13.294;2022-10-15T11:09:57;16.80;99.90
18577;DHT22;9418;52.694;13.294;2022-10-15T11:12:47;16.80;99.90
18577;DHT22;9418;52.694;13.294;2022-10-15T11:15:28;16.80;99.90
18577;DHT22;9418;52.694;13.294;2022-10-15T11:18:06;16.80;99.90
18577;DHT22;9418;52.694;13.294;2022-10-15T11:20:46;16.90;99.90
18577;DHT22;9418;52.694;13.294;2022-10-15T11:23:25;16.90;99.90
18577;DHT22;9418;52.694;13.294;2022-10-15T11:26:00;17.00;99.90
18577;DHT22;9418;52.694;13.294;2022-10-15T11:28:43;17.00;99.90
18577;DHT22;9418;52.694;13.294;2022-10-15T11:31:17;17.00;99.90
18577;DHT22;9418;52.694;13.294;2022-10-15T11:33:57;17.10;99.90
18577;DHT22;9418;52.694;13.294;2022-10-15T11:36:38;17.10;99.90
18577;DHT22;9418;52.694;13.294;2022-10-15T11:39:28;17.10;99.90
18577;DHT22;9418;52.694;13.294;2022-10-15T11:42:03;17.20;99.90
18577;DHT22;9418;52.694;13.294;2022-10-15T11:44:50;17.30;99.90
18577;DHT22;9418;52.694;13.294;2022-10-15T11:47:27;17.40;99.90
18577;DHT22;9418;52.694;13.294;2022-10-15T11:50:03;17.40;99.90
18577;DHT22;9418;52.694;13.294;2022-10-15T11:52:46;17.30;99.90
18577;DHT22;9418;52.694;13.294;2022-10-15T11:55:18;17.40;99.90
18577;DHT22;9418;52.694;13.294;2022-10-15T11:57:50;17.40;99.90
18577;DHT22;9418;52.694;13.294;2022-10-15T12:00:29;17.40;99.90
18577;DHT22;9418;52.694;13.294;2022-10-15T12:03:00;17.40;99.90
18577;DHT22;9418;52.694;13.294;2022-10-15T12:05:32;17.30;1.40
18577;DHT22;9418;52.694;13.294;2022-10-15T12:08:01;17.30;99.90
18577;DHT22;9418;52.694;13.294;2022-10-15T12:10:35;17.40;99.90
18577;DHT22;9418;52.694;13.294;2022-10-15T12:13:09;17.40;99.90
18577;DHT22;9418;52.694;13.294;2022-10-15T12:15:44;17.50;99.90
18577;DHT22;9418;52.694;13.294;2022-10-15T12:18:19;17.50;99.90
18577;DHT22;9418;52.694;13.294;2022-10-15T12:20:48;17.60;99.90
18577;DHT22;9418;52.694;13.294;2022-10-15T12:23:23;17.70;99.90
18577;DHT22;9418;52.694;13.294;2022-10-15T12:25:50;17.80;99.90
18577;DHT22;9418;52.694;13.294;2022-10-15T12:28:20;17.70;99.90
18577;DHT22;9418;52.694;13.294;2022-10-15T12:31:00;17.70;99.90
18577;DHT22;9418;52.694;13.294;2022-10-15T12:33:38;17.70;99.90
18577;DHT22;9418;52.694;13.294;2022-10-15T12:36:20;17.70;99.90
18577;DHT22;9418;52.694;13.294;2022-10-15T12:38:56;17.60;99.90
18577;DHT22;9418;52.694;13.294;2022-10-15T12:41:33;17.60;99.90
18577;DHT22;9418;52.694;13.294;2022-10-15T12:44:19;17.60;99.90
18577;DHT22;9418;52.694;13.294;2022-10-15T12:46:47;17.60;99.90
18577;DHT22;9418;52.694;13.294;2022-10-15T12:49:45;17.50;99.90
18577;DHT22;9418;52.694;13.294;2022-10-15T12:52:49;17.50;99.90
18577;DHT22;9418;52.694;13.294;2022-10-15T12:55:22;17.50;99.90
18577;DHT22;9418;52.694;13.294;2022-10-15T12:57:55;17.50;99.90
18577;DHT22;9418;52.694;13.294;2022-10-15T13:00:33;17.50;99.90
18577;DHT22;9418;52.694;13.294;2022-10-15T13:03:33;17.50;99.90
18577;DHT22;9418;52.694;13.294;2022-10-15T13:06:23;17.50;99.90
18577;DHT22;9418;52.694;13.294;2022-10-15T13:08:53;17.60;99.90
18577;DHT22;9418;52.694;13.294;2022-10-15T13:11:23;17.60;99.90
18577;DHT22;9418;52.694;13.294;2022-10-15T13:13:53;17.60;99.90
18577;DHT22;9418;52.694;13.294;2022-10-15T13:16:22;17.70;99.90
18577;DHT22;9418;52.694;13.294;2022-10-15T13:18:52;17.70;99.90
18577;DHT22;9418;52.694;13.294;2022-10-15T13:21:20;17.60;99.90
18577;DHT22;9418;52.694;13.294;2022-10-15T13:23:48;17.70;99.90
18577;DHT22;9418;52.694;13.294;2022-10-15T13:26:18;17.60;99.90
18577;DHT22;9418;52.694;13.294;2022-10-15T13:28:46;17.70;99.90
18577;DHT22;9418;52.694;13.294;2022-10-15T13:31:18;17.70;99.90
18577;DHT22;9418;52.694;13.294;2022-10-15T13:33:50;17.70;99.90
18577;DHT22;9418;52.694;13.294;2022-10-15T13:36:20;17.80;99.90
18577;DHT22;9418;52.694;13.294;2022-10-15T13:38:56;17.80;99.90
18577;DHT22;9418;52.694;13.294;2022-10-15T13:41:25;17.80;99.90
18577;DHT22;9418;52.694;13.294;2022-10-15T13:43:53;17.80;99.90
18577;DHT22;9418;52.694;13.294;2022-10-15T13:46:23;17.90;99.90
18577;DHT22;9418;52.694;13.294;2022-10-15T13:48:57;17.90;99.90
18577;DHT22;9418;52.694;13.294;2022-10-15T13:51:31;17.90;99.90
18577;DHT22;9418;52.694;13.294;2022-10-15T13:53:58;17.90;99.90
18577;DHT22;9418;52.694;13.294;2022-10-15T13:56:27;17.80;99.90
18577;DHT22;9418;52.694;13.294;2022-10-15T13:58:54;17.80;99.90
18577;DHT22;9418;52.694;13.294;2022-10-15T14:01:24;17.90;99.90
18577;DHT22;9418;52.694;13.294;2022-10-15T14:03:52;17.80;99.90
18577;DHT22;9418;52.694;13.294;2022-10-15T14:06:23;17.90;99.90
18577;DHT22;9418;52.694;13.294;2022-10-15T14:08:51;17.90;99.90
18577;DHT22;9418;52.694;13.294;2022-10-15T14:11:18;17.90;99.90
18577;DHT22;9418;52.694;13.294;2022-10-15T14:13:47;17.90;99.90
18577;DHT22;9418;52.694;13.294;2022-10-15T14:16:18;17.90;99.90
18577;DHT22;9418;52.694;13.294;2022-10-15T14:18:48;17.80;99.90
18577;DHT22;9418;52.694;13.294;2022-10-15T14:21:18;17.80;99.90
18577;DHT22;9418;52.694;13.294;2022-10-15T14:23:46;17.70;99.90
18577;DHT22;9418;52.694;13.294;2022-10-15T14:26:14;17.70;99.90
18577;DHT22;9418;52.694;13.294;2022-10-15T14:28:43;17.70;99.90
18577;DHT22;9418;52.694;13.294;2022-10-15T14:31:28;17.70;99.90
18577;DHT22;9418;52.694;13.294;2022-10-15T14:33:55;17.60;99.90
18577;DHT22;9418;52.694;13.294;2022-10-15T14:36:25;17.60;99.90
18577;DHT22;9418;52.694;13.294;2022-10-15T14:38:53;17.60;99.90
18577;DHT22;9418;52.694;13.294;2022-10-15T14:41:24;17.60;99.90
18577;DHT22;9418;52.694;13.294;2022-10-15T14:44:17;17.60;99.90
18577;DHT22;9418;52.694;13.294;2022-10-15T14:46:45;17.60;99.90
18577;DHT22;9418;52.694;13.294;2022-10-15T14:49:19;17.60;99.90
18577;DHT22;9418;52.694;13.294;2022-10-15T14:51:52;17.70;99.90
18577;DHT22;9418;52.694;13.294;2022-10-15T14:54:24;17.60;99.90
18577;DHT22;9418;52.694;13.294;2022-10-15T14:56:54;17.70;99.90
18577;DHT22;9418;52.694;13.294;2022-10-15T14:59:22;17.60;99.90
18577;DHT22;9418;52.694;13.294;2022-10-15T15:01:53;17.60;99.90
18577;DHT22;9418;52.694;13.294;2022-10-15T15:04:32;17.60;99.90
18577;DHT22;9418;52.694;13.294;2022-10-15T15:06:59;17.60;99.90
18577;DHT22;9418;52.694;13.294;2022-10-15T15:09:27;17.50;99.90
18577;DHT22;9418;52.694;13.294;2022-10-15T15:11:53;17.50;99.90
18577;DHT22;9418;52.694;13.294;2022-10-15T15:14:22;17.40;99.90
18577;DHT22;9418;52.694;13.294;2022-10-15T15:16:49;17.40;99.90
18577;DHT22;9418;52.694;13.294;2022-10-15T15:19:16;17.40;99.90
18577;DHT22;9418;52.694;13.294;2022-10-15T15:21:42;17.30;99.90
18577;DHT22;9418;52.694;13.294;2022-10-15T15:24:10;17.30;99.90
18577;DHT22;9418;52.694;13.294;2022-10-15T15:26:38;17.30;99.90
18577;DHT22;9418;52.694;13.294;2022-10-15T15:29:10;17.30;99.90
18577;DHT22;9418;52.694;13.294;2022-10-15T15:31:37;17.30;99.90
18577;DHT22;9418;52.694;13.294;2022-10-15T15:34:03;17.20;99.90
18577;DHT22;9418;52.694;13.294;2022-10-15T15:36:30;17.20;99.90
18577;DHT22;9418;52.694;13.294;2022-10-15T15:38:57;17.20;99.90
18577;DHT22;9418;52.694;13.294;2022-10-15T15:41:24;17.20;99.90
18577;DHT22;9418;52.694;13.294;2022-10-15T15:43:52;17.20;99.90
18577;DHT22;9418;52.694;13.294;2022-10-15T15:46:19;17.20;99.90
18577;DHT22;9418;52.694;13.294;2022-10-15T15:48:45;17.10;99.90
18577;DHT22;9418;52.694;13.294;2022-10-15T15:51:18;17.10;99.90